createdAt,value
2022-11-30T00:02:26.303Z,17.20
2022-11-30T00:05:49.416Z,17.20
2022-11-30T00:09:14.977Z,17.20
2022-11-30T00:12:37.880Z,17.20
2022-11-30T00:16:01.748Z,17.20
2022-11-30T00:19:24.642Z,17.20
2022-11-30T00:22:47.535Z,17.20
2022-11-30T00:26:13.793Z,17.20
2022-11-30T00:29:36.722Z,17.20
2022-11-30T00:32:59.630Z,17.20
2022-11-30T00:36:23.612Z,17.10
2022-11-30T00:39:46.493Z,17.10
2022-11-30T00:43:10.776Z,17.10
2022-11-30T00:46:33.964Z,17.10
2022-11-30T00:49:56.963Z,17.20
2022-11-30T00:53:20.703Z,17.20
2022-11-30T00:56:43.659Z,17.20
2022-11-30T01:00:09.768Z,17.20
2022-11-30T01:03:32.859Z,17.20
2022-11-30T01:06:55.757Z,17.20
2022-11-30T01:10:18.968Z,17.30
2022-11-30T01:13:41.903Z,17.30
2022-11-30T01:17:06.212Z,17.30
2022-11-30T01:20:29.134Z,17.20
2022-11-30T01:23:52.468Z,17.20
2022-11-30T01:27:15.438Z,17.20
2022-11-30T01:30:38.405Z,17.20
2022-11-30T01:34:02.756Z,17.20
2022-11-30T01:37:25.648Z,17.20
2022-11-30T01:40:51.747Z,17.20
2022-11-30T01:44:57.397Z,17.10
2022-11-30T01:48:21.119Z,17.20
2022-11-30T01:51:48.064Z,17.20
2022-11-30T01:55:19.691Z,17.20
2022-11-30T01:58:42.739Z,17.20
2022-11-30T02:02:05.668Z,17.20
2022-11-30T02:05:28.991Z,17.20
2022-11-30T02:08:53.710Z,17.20
2022-11-30T02:12:23.670Z,17.20
2022-11-30T02:15:58.226Z,17.20
2022-11-30T02:19:51.328Z,17.20
2022-11-30T02:23:41.517Z,17.20
2022-11-30T02:27:19.524Z,17.20
2022-11-30T02:30:47.687Z,17.20
2022-11-30T02:34:14.919Z,17.20
2022-11-30T02:37:39.448Z,17.20
2022-11-30T02:41:02.376Z,17.30
2022-11-30T02:44:26.076Z,17.20
2022-11-30T02:47:56.700Z,17.30
2022-11-30T02:51:22.841Z,17.30
2022-11-30T02:54:46.092Z,17.30
2022-11-30T02:58:09.269Z,17.20
2022-11-30T03:01:32.543Z,17.20
2022-11-30T03:04:56.877Z,17.20
2022-11-30T03:08:19.759Z,17.20
2022-11-30T03:11:42.729Z,17.20
2022-11-30T03:15:06.581Z,17.20
2022-11-30T03:18:29.508Z,17.20
2022-11-30T03:21:53.796Z,17.20
2022-11-30T03:25:16.878Z,17.20
2022-11-30T03:28:39.771Z,17.20
2022-11-30T03:32:02.675Z,17.20
2022-11-30T03:35:25.566Z,17.30
2022-11-30T03:38:49.913Z,17.30
2022-11-30T03:42:12.857Z,17.30
2022-11-30T03:45:35.766Z,17.30
2022-11-30T03:48:58.647Z,17.30
2022-11-30T03:52:21.668Z,17.20
2022-11-30T03:55:45.952Z,17.20
2022-11-30T03:59:08.879Z,17.20
2022-11-30T04:02:32.106Z,17.20
2022-11-30T04:05:55.377Z,17.20
2022-11-30T04:09:18.311Z,17.20
2022-11-30T04:12:42.535Z,17.20
2022-11-30T04:16:06.823Z,17.20
2022-11-30T04:19:29.770Z,17.20
2022-11-30T04:22:53.744Z,17.20
2022-11-30T04:26:17.904Z,17.20
2022-11-30T04:29:42.160Z,17.20
2022-11-30T04:33:06.107Z,17.30
2022-11-30T04:36:29.006Z,17.30
2022-11-30T04:39:51.879Z,17.30
2022-11-30T04:43:14.940Z,17.30
2022-11-30T04:46:39.250Z,17.30
2022-11-30T04:50:02.519Z,17.30
2022-11-30T04:53:25.402Z,17.30
2022-11-30T04:56:48.311Z,17.30
2022-11-30T05:00:12.560Z,17.30
2022-11-30T05:03:36.925Z,17.20
2022-11-30T05:06:59.810Z,17.20
2022-11-30T05:10:22.876Z,17.20
2022-11-30T05:13:45.788Z,17.20
2022-11-30T05:17:08.699Z,17.20
2022-11-30T05:20:32.931Z,17.20
2022-11-30T05:23:55.819Z,17.20
2022-11-30T05:27:22.588Z,17.20
2022-11-30T05:30:45.868Z,17.20
2022-11-30T05:34:08.818Z,17.20
2022-11-30T05:37:33.136Z,17.20
2022-11-30T05:41:00.952Z,17.30
2022-11-30T05:44:23.861Z,17.30
2022-11-30T05:47:46.775Z,17.30
2022-11-30T05:51:11.268Z,17.40
2022-11-30T05:54:36.095Z,17.30
2022-11-30T05:57:59.049Z,17.40
2022-11-30T06:01:23.452Z,17.30
2022-11-30T06:04:46.621Z,17.30
2022-11-30T06:08:09.741Z,17.30
2022-11-30T06:11:34.079Z,17.30
2022-11-30T06:14:56.976Z,17.20
2022-11-30T06:18:20.030Z,17.20
2022-11-30T06:21:43.050Z,17.20
2022-11-30T06:25:06.707Z,17.20
2022-11-30T06:28:31.112Z,17.10
2022-11-30T06:31:54.030Z,17.10
2022-11-30T06:35:17.260Z,17.10
2022-11-30T06:38:40.209Z,17.10
2022-11-30T06:42:03.130Z,17.10
2022-11-30T06:45:27.412Z,17.10
2022-11-30T06:48:50.880Z,17.20
2022-11-30T06:52:14.088Z,17.20
2022-11-30T06:55:38.267Z,17.20
2022-11-30T06:59:01.210Z,17.20
2022-11-30T07:02:26.326Z,17.20
2022-11-30T07:05:49.231Z,17.20
2022-11-30T07:09:13.176Z,17.20
2022-11-30T07:12:36.439Z,17.20
2022-11-30T07:15:59.479Z,17.30
2022-11-30T07:19:23.739Z,17.40
2022-11-30T07:22:46.639Z,17.40
2022-11-30T07:26:09.435Z,17.50
2022-11-30T07:29:32.438Z,17.20
2022-11-30T07:32:55.484Z,16.20
2022-11-30T07:36:21.714Z,15.60
2022-11-30T07:39:44.637Z,15.10
2022-11-30T07:43:07.789Z,14.80
2022-11-30T07:46:33.649Z,14.70
2022-11-30T07:49:57.146Z,15.00
2022-11-30T07:53:21.565Z,15.60
2022-11-30T07:56:44.669Z,16.10
2022-11-30T08:00:10.073Z,16.50
2022-11-30T08:03:37.216Z,16.80
2022-11-30T08:07:00.527Z,17.00
2022-11-30T08:10:25.407Z,17.20
2022-11-30T08:13:48.371Z,17.30
2022-11-30T08:17:11.294Z,17.50
2022-11-30T08:20:34.566Z,17.50
2022-11-30T08:23:58.177Z,17.60
2022-11-30T08:27:22.469Z,17.70
2022-11-30T08:30:45.433Z,17.70
2022-11-30T08:34:11.586Z,17.80
2022-11-30T08:37:37.699Z,17.80
2022-11-30T08:41:00.592Z,17.90
2022-11-30T08:44:24.999Z,17.90
2022-11-30T08:47:47.921Z,18.00
2022-11-30T08:51:12.716Z,18.00
2022-11-30T08:54:35.646Z,18.00
2022-11-30T08:57:59.066Z,18.00
2022-11-30T09:01:27.168Z,18.10
2022-11-30T09:04:53.512Z,18.10
2022-11-30T09:08:16.514Z,18.10
2022-11-30T09:11:39.552Z,18.20
2022-11-30T09:15:02.726Z,18.20
2022-11-30T09:18:27.427Z,18.20
2022-11-30T09:21:52.300Z,18.30
2022-11-30T09:25:15.598Z,18.30
2022-11-30T09:28:39.965Z,18.30
2022-11-30T09:32:02.980Z,18.40
2022-11-30T09:35:27.683Z,18.40
2022-11-30T09:38:53.489Z,18.40
2022-11-30T09:42:34.817Z,18.40
2022-11-30T09:46:00.571Z,18.40
2022-11-30T09:49:26.416Z,18.30
2022-11-30T09:52:53.218Z,18.30
2022-11-30T09:56:22.542Z,18.30
2022-11-30T09:59:52.654Z,18.30
2022-11-30T10:03:15.845Z,18.30
2022-11-30T10:06:44.238Z,18.30
2022-11-30T10:10:34.041Z,18.30
2022-11-30T10:14:06.962Z,18.30
2022-11-30T10:17:40.585Z,18.30
2022-11-30T10:21:12.051Z,18.40
2022-11-30T10:24:51.226Z,18.50
2022-11-30T10:28:45.390Z,18.50
2022-11-30T10:32:11.297Z,18.50
2022-11-30T10:35:38.580Z,18.60
2022-11-30T10:39:05.720Z,18.70
2022-11-30T10:42:33.559Z,18.70
2022-11-30T10:45:57.944Z,18.70
2022-11-30T10:49:23.452Z,18.70
2022-11-30T10:52:49.188Z,18.70
2022-11-30T10:56:14.168Z,18.70
2022-11-30T10:59:43.313Z,18.70
2022-11-30T11:03:24.080Z,18.60
2022-11-30T11:06:49.854Z,18.60
2022-11-30T11:10:16.396Z,18.50
2022-11-30T11:13:40.791Z,18.50
2022-11-30T11:17:06.687Z,18.50
2022-11-30T11:20:34.417Z,18.50
2022-11-30T11:23:58.614Z,18.60
2022-11-30T11:27:26.836Z,18.60
2022-11-30T11:30:50.124Z,18.60
2022-11-30T11:34:26.121Z,18.70
2022-11-30T11:37:53.518Z,18.70
2022-11-30T11:41:22.494Z,18.70
2022-11-30T11:44:50.757Z,18.70
2022-11-30T11:48:29.605Z,18.70
2022-11-30T11:52:02.040Z,18.70
2022-11-30T11:55:26.389Z,18.70
2022-11-30T11:58:53.541Z,18.70
2022-11-30T12:02:28.894Z,18.80
2022-11-30T12:05:59.074Z,18.80
2022-11-30T12:09:26.373Z,18.80
2022-11-30T12:12:54.696Z,18.80
2022-11-30T12:16:38.777Z,18.80
2022-11-30T12:20:14.048Z,18.80
2022-11-30T12:23:54.803Z,18.80
2022-11-30T12:27:23.433Z,18.80
2022-11-30T12:31:06.584Z,18.80
2022-11-30T12:34:45.568Z,18.90
2022-11-30T12:38:18.978Z,18.90
2022-11-30T12:41:51.116Z,18.90
2022-11-30T12:45:20.334Z,19.00
2022-11-30T12:49:01.010Z,19.00
2022-11-30T12:52:37.193Z,19.00
2022-11-30T12:56:12.858Z,19.00
2022-11-30T12:59:46.050Z,19.00
2022-11-30T13:03:28.283Z,18.90
2022-11-30T13:06:56.918Z,18.80
2022-11-30T13:10:27.608Z,18.80
2022-11-30T13:13:53.424Z,18.80
2022-11-30T13:17:21.132Z,18.80
2022-11-30T13:20:50.579Z,18.80
2022-11-30T13:24:24.343Z,18.70
2022-11-30T13:27:58.043Z,18.70
2022-11-30T13:31:25.446Z,18.70
2022-11-30T13:34:48.733Z,18.70
2022-11-30T13:38:37.375Z,18.70
2022-11-30T13:42:34.547Z,18.70
2022-11-30T13:46:14.330Z,18.60
2022-11-30T13:49:38.233Z,18.60
2022-11-30T13:53:19.673Z,18.50
2022-11-30T13:56:48.747Z,18.50
2022-11-30T14:00:49.358Z,18.50
2022-11-30T14:04:45.967Z,18.40
2022-11-30T14:08:33.401Z,18.40
2022-11-30T14:11:56.490Z,18.40
2022-11-30T14:15:53.992Z,18.40
2022-11-30T14:19:17.326Z,18.30
2022-11-30T14:22:42.040Z,18.20
2022-11-30T14:26:11.184Z,18.20
2022-11-30T14:29:38.248Z,18.20
2022-11-30T14:33:05.435Z,18.10
2022-11-30T14:36:35.379Z,18.10
2022-11-30T14:40:03.694Z,18.10
2022-11-30T14:43:26.802Z,18.00
2022-11-30T14:46:52.655Z,18.00
2022-11-30T14:50:24.387Z,17.90
2022-11-30T14:53:54.020Z,17.90
2022-11-30T14:57:28.503Z,17.90
2022-11-30T15:00:53.812Z,17.90
2022-11-30T15:04:20.948Z,17.80
2022-11-30T15:07:45.206Z,17.80
2022-11-30T15:11:12.647Z,17.80
2022-11-30T15:14:37.125Z,17.80
2022-11-30T15:18:09.151Z,17.80
2022-11-30T15:21:33.528Z,17.80
2022-11-30T15:24:56.464Z,17.70
2022-11-30T15:28:23.352Z,17.70
2022-11-30T15:31:53.134Z,17.70
2022-11-30T15:35:22.680Z,17.70
2022-11-30T15:38:51.191Z,17.70
2022-11-30T15:42:21.551Z,17.70
2022-11-30T15:45:54.734Z,17.60
2022-11-30T15:49:24.637Z,17.60
2022-11-30T15:52:51.767Z,17.60
2022-11-30T15:56:24.246Z,17.70
2022-11-30T16:00:07.160Z,17.60
2022-11-30T16:03:30.468Z,17.60
2022-11-30T16:06:54.837Z,17.60
2022-11-30T16:10:21.226Z,17.60
2022-11-30T16:13:44.956Z,17.60
2022-11-30T16:17:09.209Z,17.60
2022-11-30T16:20:32.299Z,17.50
2022-11-30T16:23:56.563Z,17.60
2022-11-30T16:27:22.502Z,17.60
2022-11-30T16:30:46.972Z,17.60
2022-11-30T16:34:12.463Z,17.60
2022-11-30T16:37:35.335Z,17.50
2022-11-30T16:41:14.922Z,17.50
2022-11-30T16:44:37.892Z,17.50
2022-11-30T16:48:00.800Z,17.50
2022-11-30T16:51:27.144Z,17.50
2022-11-30T16:54:50.155Z,17.50
2022-11-30T16:58:14.381Z,17.50
2022-11-30T17:01:40.962Z,17.50
2022-11-30T17:05:04.029Z,17.40
2022-11-30T17:08:26.956Z,17.40
2022-11-30T17:11:51.326Z,17.40
2022-11-30T17:15:18.521Z,17.40
2022-11-30T17:18:41.918Z,17.40
2022-11-30T17:22:05.392Z,17.30
2022-11-30T17:25:28.720Z,17.30
2022-11-30T17:28:51.702Z,17.20
2022-11-30T17:32:15.917Z,17.20
2022-11-30T17:35:39.897Z,17.20
2022-11-30T17:39:05.763Z,17.20
2022-11-30T17:42:29.902Z,17.10
2022-11-30T17:45:53.012Z,17.10
2022-11-30T17:49:17.416Z,17.10
2022-11-30T17:52:40.362Z,17.10
2022-11-30T17:56:04.661Z,17.10
2022-11-30T17:59:27.670Z,17.10
2022-11-30T18:02:52.112Z,17.10
2022-11-30T18:06:16.900Z,17.10
2022-11-30T18:09:42.678Z,17.00
2022-11-30T18:13:06.066Z,17.00
2022-11-30T18:16:30.902Z,17.00
2022-11-30T18:19:54.504Z,17.00
2022-11-30T18:23:18.780Z,17.00
2022-11-30T18:26:41.784Z,17.00
2022-11-30T18:30:10.009Z,17.00
2022-11-30T18:33:33.682Z,17.00
2022-11-30T18:36:57.427Z,17.00
2022-11-30T18:40:21.880Z,17.00
2022-11-30T18:43:44.876Z,17.00
2022-11-30T18:47:08.355Z,16.90
2022-11-30T18:50:31.324Z,17.00
2022-11-30T18:53:57.641Z,16.90
2022-11-30T18:57:22.188Z,16.90
2022-11-30T19:00:45.264Z,16.90
2022-11-30T19:04:10.415Z,16.90
2022-11-30T19:07:35.332Z,16.90
2022-11-30T19:11:05.461Z,16.90
2022-11-30T19:14:30.113Z,16.90
2022-11-30T19:17:53.132Z,16.90
2022-11-30T19:21:18.474Z,16.90
2022-11-30T19:24:41.424Z,16.80
2022-11-30T19:28:04.652Z,16.90
2022-11-30T19:31:28.978Z,16.90
2022-11-30T19:34:52.538Z,16.80
2022-11-30T19:38:15.415Z,16.90
2022-11-30T19:41:38.343Z,16.80
2022-11-30T19:45:01.271Z,16.80
2022-11-30T19:48:25.546Z,16.80
2022-11-30T19:51:48.513Z,16.80
2022-11-30T19:55:11.545Z,16.80
2022-11-30T19:58:34.772Z,16.80
2022-11-30T20:01:57.690Z,16.80
2022-11-30T20:05:22.047Z,16.80
2022-11-30T20:08:45.126Z,16.80
2022-11-30T20:12:08.412Z,16.80
2022-11-30T20:15:31.389Z,16.80
2022-11-30T20:18:56.288Z,16.70
2022-11-30T20:22:20.761Z,16.80
2022-11-30T20:25:43.757Z,16.80
2022-11-30T20:29:08.587Z,16.70
2022-11-30T20:32:32.147Z,16.70
2022-11-30T20:35:55.175Z,16.70
2022-11-30T20:39:19.564Z,16.70
2022-11-30T20:42:42.829Z,16.70
2022-11-30T20:46:13.989Z,16.70
2022-11-30T20:49:37.310Z,16.70
2022-11-30T20:53:00.590Z,16.70
2022-11-30T20:56:25.161Z,16.70
2022-11-30T20:59:48.466Z,16.70
2022-11-30T21:03:11.489Z,16.70
2022-11-30T21:06:34.632Z,16.70
2022-11-30T21:09:58.461Z,16.70
2022-11-30T21:13:22.865Z,16.70
2022-11-30T21:16:45.877Z,16.70
2022-11-30T21:20:09.881Z,16.70
2022-11-30T21:23:33.268Z,16.60
2022-11-30T21:26:56.259Z,16.60
2022-11-30T21:30:20.724Z,16.60
2022-11-30T21:33:50.931Z,16.60
2022-11-30T21:37:15.253Z,16.60
2022-11-30T21:40:38.167Z,16.70
2022-11-30T21:44:01.099Z,16.60
2022-11-30T21:47:25.351Z,16.70
2022-11-30T21:50:48.234Z,16.70
2022-11-30T21:54:13.200Z,16.70
2022-11-30T21:57:36.085Z,16.70
2022-11-30T22:01:00.893Z,16.70
2022-11-30T22:04:25.262Z,16.70
2022-11-30T22:07:48.318Z,16.70
2022-11-30T22:11:12.880Z,16.70
2022-11-30T22:14:36.450Z,16.70
2022-11-30T22:17:59.361Z,16.70
2022-11-30T22:21:25.313Z,16.70
2022-11-30T22:24:48.876Z,16.70
2022-11-30T22:28:11.771Z,16.70
2022-11-30T22:31:36.681Z,16.70
2022-11-30T22:34:59.631Z,16.70
2022-11-30T22:38:23.871Z,16.70
2022-11-30T22:41:53.080Z,16.70
2022-11-30T22:45:18.459Z,16.70
2022-11-30T22:48:42.015Z,16.60
2022-11-30T22:52:05.020Z,16.60
2022-11-30T22:55:29.384Z,16.70
2022-11-30T22:58:54.581Z,16.70
2022-11-30T23:02:17.551Z,16.70
2022-11-30T23:05:40.448Z,16.70
2022-11-30T23:09:04.764Z,16.60
2022-11-30T23:12:57.452Z,16.70
2022-11-30T23:16:13.708Z,16.70
2022-11-30T23:19:36.648Z,16.80
2022-11-30T23:22:59.588Z,16.80
2022-11-30T23:26:24.336Z,16.80
2022-11-30T23:29:48.736Z,16.80
2022-11-30T23:33:11.771Z,16.80
2022-11-30T23:36:35.716Z,16.80
2022-11-30T23:39:58.698Z,16.80
2022-11-30T23:43:21.591Z,16.80
2022-11-30T23:46:46.179Z,16.80
2022-11-30T23:50:10.204Z,16.80
2022-11-30T23:53:33.512Z,16.80
2022-11-30T23:56:56.491Z,16.80
